Regen radar Meer informatie rain snow radar


Bezoek ook deze websites:

Template documentation
and downloads

And another site



METAR rapporten vliegvelden

Warning: A non-numeric value encountered in /customers/a/f/b/meteoassenede.be/httpd.www/weather28/metar/metarDisplay.php on line 166 Warning: A non-numeric value encountered in /customers/a/f/b/meteoassenede.be/httpd.www/weather28/metar/metarDisplay.php on line 166
   
EBBR - Brussels International Airport, Belgium
Afstand tot: W 14 km
Gewijzigd: 04-10-2022 15:20
Licht bewolkt  
Licht bewolkt  
   Wind: ZZW 17 km/h
Wind: ZZW 17 km/h
Temperatuur: 18°C
Dauwpunt: 11°C
Vochtigheid: 64%
Barometer: 1020 hPa
Bewolking: Licht bewolkt
Zicht: meer dan 10 km
Bewolking: Licht bewolkt 3200 ft
EBBR 041320Z 21009KT 9999 FEW032 18/11 Q1020 NOSIG
EBBE - Beauvechain (Bevekom), Belgium
Afstand tot: ZZO 17 km
Gewijzigd: 04-10-2022 14:55
Gedeeltelijk bewolkt  
Gedeeltelijk bewolkt  
   Wind: ZW 19 km/h
Wind: ZW 19 km/h
Temperatuur: 18°C
Dauwpunt: 11°C
Vochtigheid: 64%
Barometer: 1020 hPa
Bewolking: Gedeeltelijk bewolkt
Zicht: meer dan 10 km
Bewolking: Licht bewolkt 2500 ft,
Gedeeltelijk bewolkt 20000 ft
EBBE 041255Z 22010KT 9999 FEW025 SCT200 18/11 Q1020 BLU BLU
EBDT - Schaffen, Belgium
Afstand tot: ONO 29 km
Gewijzigd: 04-10-2022 14:55
Gedeeltelijk bewolkt  
Gedeeltelijk bewolkt  
   Wind: Zuiden 11 km/h
Wind: Zuiden 11 km/h
Temperatuur: 18°C
Dauwpunt: 10°C
Vochtigheid: 60%
Barometer: 1020 hPa
Bewolking: Gedeeltelijk bewolkt
Zicht: meer dan 10 km
Bewolking: Gedeeltelijk bewolkt 24000 ft
EBDT 041255Z AUTO 19006KT 9999 SCT240/// 18/10 Q1020 BLU
EBAW - Antwerp/Deurne, Belgium
Afstand tot: NNW 38 km
Gewijzigd: 04-10-2022 15:20
  
  
   Wind: Zuiden 13 km/h
Wind: Zuiden 13 km/h
Temperatuur: 18°C
Dauwpunt: 11°C
Vochtigheid: 64%
Barometer: 1019 hPa
Zicht: meer dan 10 km
Bewolking: Bewolking
EBAW 041320Z AUTO 19007KT 9999 // VV/// 18/11 Q1019
EBCI - Charleroi/Gosselies, Belgium
Afstand tot: ZZW 51 km
Gewijzigd: 04-10-2022 15:20
Licht bewolkt  
Licht bewolkt  
   Wind: ZZW 19 km/h
Wind: ZZW 19 km/h
Temperatuur: 17°C
Dauwpunt: 9°C
Vochtigheid: 59%
Barometer: 1020 hPa
Bewolking: Licht bewolkt
Zicht: meer dan 10 km
Bewolking: Licht bewolkt 3100 ft
EBCI 041320Z 20010KT 9999 FEW031 17/09 Q1020 NOSIG
EBLG - Bierset/Liege, Belgium
Afstand tot: OZO 60 km
Gewijzigd: 04-10-2022 15:20
Helder  
Helder  
   Wind: ZW 15 km/h
Wind: ZW 15 km/h
Temperatuur: 18°C
Dauwpunt: 10°C
Vochtigheid: 60%
Barometer: 1020 hPa
Zicht: meer dan 10 km
Bewolking: Helder
EBLG 041320Z 22008KT CAVOK 18/10 Q1020 NOSIG

Script ontwikkeld door  Saratoga-weather.org Aangepast voor de template door  Weerstation Leuven

U vindt ons ook hier:

Het Weer Aktueel

UK Metoffice

WeatherCloud

Weather Underground

Benelux Weer Netwerk

AWEKAS

Apparatuur in gebruik:

Weerstation
Davis Vantage Pro2

Weerprogramma
Meteobridge

Weercomputer
TP-Link TL-MR3020

Webleverancier
One.com

Davis Vantage Pro2

Meteobridge

TP-Link TL-MR3020

One.com